createdAt,value
2023-02-01T00:02:07.595Z,2.60
2023-02-01T00:04:39.531Z,2.70
2023-02-01T00:07:14.227Z,2.60
2023-02-01T00:09:46.292Z,2.60
2023-02-01T00:12:18.439Z,2.50
2023-02-01T00:14:50.334Z,2.60
2023-02-01T00:17:22.127Z,2.60
2023-02-01T00:19:54.390Z,2.50
2023-02-01T00:22:26.272Z,2.50
2023-02-01T00:24:58.211Z,2.50
2023-02-01T00:27:30.146Z,2.50
2023-02-01T00:30:04.293Z,2.50
2023-02-01T00:32:41.056Z,2.50
2023-02-01T00:35:12.935Z,2.50
2023-02-01T00:37:45.731Z,2.50
2023-02-01T00:40:44.179Z,2.50
2023-02-01T00:43:16.136Z,2.40
2023-02-01T00:45:49.902Z,2.40
2023-02-01T00:48:21.764Z,2.30
2023-02-01T00:50:53.856Z,2.30
2023-02-01T00:53:25.687Z,2.40
2023-02-01T00:56:01.037Z,2.40
2023-02-01T00:58:33.899Z,2.40
2023-02-01T01:01:15.049Z,2.30
2023-02-01T01:03:52.501Z,2.30
2023-02-01T01:06:33.086Z,2.30
2023-02-01T01:09:08.015Z,2.40
2023-02-01T01:11:40.148Z,2.40
2023-02-01T01:14:12.192Z,2.40
2023-02-01T01:16:44.143Z,2.40
2023-02-01T01:19:16.096Z,2.30
2023-02-01T01:21:48.108Z,2.30
2023-02-01T01:24:21.416Z,2.30
2023-02-01T01:26:53.393Z,2.20
2023-02-01T01:29:25.898Z,2.20
2023-02-01T01:31:57.991Z,2.20
2023-02-01T01:34:29.940Z,2.20
2023-02-01T01:37:01.817Z,2.20
2023-02-01T01:39:33.639Z,2.20
2023-02-01T01:42:05.578Z,2.20
2023-02-01T01:44:59.478Z,2.20
2023-02-01T01:47:42.240Z,2.20
2023-02-01T01:50:18.157Z,2.20
2023-02-01T01:52:53.033Z,2.10
2023-02-01T01:55:27.014Z,2.00
2023-02-01T01:58:03.794Z,2.00
2023-02-01T02:00:36.104Z,2.00
2023-02-01T02:03:16.235Z,2.00
2023-02-01T02:05:51.719Z,2.10
2023-02-01T02:08:26.623Z,2.20
2023-02-01T02:11:01.649Z,2.30
2023-02-01T02:13:36.280Z,2.40
2023-02-01T02:16:11.012Z,2.30
2023-02-01T02:18:57.773Z,2.30
2023-02-01T02:21:35.409Z,2.30
2023-02-01T02:24:26.143Z,2.30
2023-02-01T02:27:28.150Z,2.20
2023-02-01T02:30:20.137Z,2.10
2023-02-01T02:33:23.207Z,2.10
2023-02-01T02:36:04.215Z,2.10
2023-02-01T02:39:12.648Z,2.10
2023-02-01T02:42:37.315Z,2.10
2023-02-01T02:45:37.579Z,2.20
2023-02-01T02:48:17.730Z,2.30
2023-02-01T02:51:40.113Z,2.30
2023-02-01T02:54:52.970Z,2.50
2023-02-01T02:57:53.434Z,2.30
2023-02-01T03:00:53.186Z,2.30
2023-02-01T03:03:44.065Z,2.30
2023-02-01T03:06:19.670Z,2.10
2023-02-01T03:08:55.042Z,2.10
2023-02-01T03:11:50.373Z,2.20
2023-02-01T03:14:26.611Z,2.10
2023-02-01T03:17:06.323Z,2.10
2023-02-01T03:19:50.424Z,2.10
2023-02-01T03:22:27.640Z,2.20
2023-02-01T03:25:08.639Z,2.20
2023-02-01T03:27:46.651Z,2.20
2023-02-01T03:30:27.569Z,2.20
2023-02-01T03:33:01.987Z,2.20
2023-02-01T03:36:08.030Z,2.20
2023-02-01T03:38:49.763Z,2.30
2023-02-01T03:41:45.541Z,2.30
2023-02-01T03:44:26.750Z,2.20
2023-02-01T03:47:14.636Z,2.20
2023-02-01T03:49:55.928Z,2.20
2023-02-01T03:52:53.178Z,2.20
2023-02-01T03:55:28.392Z,2.20
2023-02-01T03:58:08.099Z,2.20
2023-02-01T04:00:40.510Z,2.20
2023-02-01T04:03:12.721Z,2.20
2023-02-01T04:05:44.710Z,2.10
2023-02-01T04:08:17.074Z,2.20
2023-02-01T04:10:48.955Z,2.10
2023-02-01T04:13:20.776Z,2.10
2023-02-01T04:15:52.830Z,2.10
2023-02-01T04:18:24.751Z,2.00
2023-02-01T04:20:56.627Z,2.00
2023-02-01T04:23:30.579Z,2.00
2023-02-01T04:26:04.347Z,2.00
2023-02-01T04:28:38.869Z,2.00
2023-02-01T04:31:11.027Z,2.00
2023-02-01T04:33:43.043Z,2.00
2023-02-01T04:36:14.903Z,1.90
2023-02-01T04:38:46.800Z,1.90
2023-02-01T04:41:19.826Z,2.00
2023-02-01T04:43:53.564Z,2.00
2023-02-01T04:46:25.564Z,1.90
2023-02-01T04:48:57.392Z,1.90
2023-02-01T04:51:29.335Z,1.80
2023-02-01T04:54:01.120Z,1.80
2023-02-01T04:56:33.209Z,1.90
2023-02-01T04:59:06.155Z,1.80
2023-02-01T05:01:38.131Z,1.80
2023-02-01T05:04:10.959Z,1.70
2023-02-01T05:06:42.815Z,1.70
2023-02-01T05:09:14.732Z,1.70
2023-02-01T05:12:05.141Z,1.70
2023-02-01T05:14:36.979Z,1.70
2023-02-01T05:17:08.987Z,1.80
2023-02-01T05:19:40.863Z,1.90
2023-02-01T05:22:12.772Z,1.90
2023-02-01T05:24:45.663Z,1.90
2023-02-01T05:27:17.990Z,1.90
2023-02-01T05:29:49.892Z,1.90
2023-02-01T05:32:23.847Z,1.90
2023-02-01T05:34:55.876Z,1.80
2023-02-01T05:37:27.791Z,1.80
2023-02-01T05:39:59.656Z,1.70
2023-02-01T05:42:31.522Z,1.70
2023-02-01T05:45:06.120Z,1.70
2023-02-01T05:47:38.129Z,1.70
2023-02-01T05:50:10.367Z,1.70
2023-02-01T05:52:43.621Z,1.80
2023-02-01T05:55:15.601Z,1.90
2023-02-01T05:57:47.654Z,1.80
2023-02-01T06:00:22.210Z,1.70
2023-02-01T06:02:54.331Z,1.70
2023-02-01T06:05:26.736Z,1.70
2023-02-01T06:07:59.270Z,1.70
2023-02-01T06:10:31.241Z,1.70
2023-02-01T06:13:04.812Z,1.70
2023-02-01T06:15:38.496Z,1.70
2023-02-01T06:18:10.631Z,1.60
2023-02-01T06:20:42.543Z,1.60
2023-02-01T06:23:14.365Z,1.50
2023-02-01T06:25:46.266Z,1.60
2023-02-01T06:28:18.173Z,1.50
2023-02-01T06:30:50.171Z,1.50
2023-02-01T06:33:22.480Z,1.50
2023-02-01T06:36:00.165Z,1.30
2023-02-01T06:38:32.974Z,1.60
2023-02-01T06:41:05.388Z,1.60
2023-02-01T06:43:38.198Z,1.60
2023-02-01T06:46:13.419Z,1.60
2023-02-01T06:48:47.120Z,1.60
2023-02-01T06:51:25.037Z,1.60
2023-02-01T06:53:58.047Z,1.60
2023-02-01T06:56:29.960Z,1.60
2023-02-01T06:59:05.327Z,1.60
2023-02-01T07:01:37.199Z,1.60
2023-02-01T07:04:12.047Z,1.70
2023-02-01T07:06:44.060Z,1.70
2023-02-01T07:09:15.970Z,1.80
2023-02-01T07:11:48.041Z,2.00
2023-02-01T07:14:19.888Z,2.30
2023-02-01T07:16:52.172Z,2.80
2023-02-01T07:19:24.021Z,3.10
2023-02-01T07:21:55.897Z,3.40
2023-02-01T07:24:27.788Z,3.70
2023-02-01T07:26:59.609Z,3.90
2023-02-01T07:29:31.446Z,3.90
2023-02-01T07:32:03.534Z,3.90
2023-02-01T07:34:35.856Z,4.00
2023-02-01T07:37:09.173Z,4.20
2023-02-01T07:39:40.997Z,4.40
2023-02-01T07:42:12.841Z,4.50
2023-02-01T07:44:44.734Z,4.60
2023-02-01T07:47:16.577Z,4.90
2023-02-01T07:49:48.513Z,5.00
2023-02-01T07:52:20.528Z,5.20
2023-02-01T07:54:52.359Z,5.30
2023-02-01T07:57:24.370Z,5.40
2023-02-01T08:00:15.046Z,5.50
2023-02-01T08:02:48.001Z,5.80
2023-02-01T08:05:20.308Z,6.10
2023-02-01T08:10:48.627Z,6.40
2023-02-01T08:13:20.756Z,6.60
2023-02-01T08:15:52.639Z,6.60
2023-02-01T08:18:24.722Z,6.60
2023-02-01T08:20:58.058Z,6.80
2023-02-01T08:23:29.940Z,7.20
2023-02-01T08:26:11.234Z,7.30
2023-02-01T08:28:45.864Z,7.50
2023-02-01T08:31:21.308Z,7.60
2023-02-01T08:33:56.098Z,7.70
2023-02-01T08:36:29.892Z,7.80
2023-02-01T08:39:06.916Z,7.90
2023-02-01T08:41:39.354Z,8.10
2023-02-01T08:44:11.347Z,8.00
2023-02-01T08:46:45.936Z,8.00
2023-02-01T08:49:17.826Z,8.10
2023-02-01T08:51:49.642Z,8.30
2023-02-01T08:54:22.226Z,8.40
2023-02-01T08:56:56.456Z,8.20
2023-02-01T08:59:30.354Z,8.00
2023-02-01T09:02:02.549Z,7.80
2023-02-01T09:04:34.390Z,7.60
2023-02-01T09:07:06.457Z,7.70
2023-02-01T09:09:39.533Z,7.70
2023-02-01T09:12:12.124Z,7.80
2023-02-01T09:14:45.521Z,7.80
2023-02-01T09:17:17.957Z,7.90
2023-02-01T09:19:49.891Z,8.00
2023-02-01T09:22:22.410Z,8.20
2023-02-01T09:24:55.350Z,8.30
2023-02-01T09:27:27.627Z,8.30
2023-02-01T09:29:59.502Z,8.30
2023-02-01T09:32:31.731Z,8.40
2023-02-01T09:35:04.914Z,8.70
2023-02-01T09:37:38.537Z,8.90
2023-02-01T09:40:18.657Z,9.20
2023-02-01T09:43:04.083Z,9.50
2023-02-01T10:01:00.677Z,9.60
2023-02-01T10:03:37.501Z,9.20
2023-02-01T10:06:28.949Z,9.10
2023-02-01T10:09:17.210Z,9.10
2023-02-01T10:11:59.202Z,9.00
2023-02-01T10:14:51.490Z,9.00
2023-02-01T10:17:47.609Z,9.00
2023-02-01T10:20:40.861Z,9.00
2023-02-01T10:23:35.587Z,9.00
2023-02-01T10:26:20.175Z,9.20
2023-02-01T10:28:56.239Z,9.30
2023-02-01T10:31:32.250Z,9.20
2023-02-01T10:34:24.276Z,9.20
2023-02-01T10:37:17.948Z,9.20
2023-02-01T10:39:53.315Z,9.20
2023-02-01T10:42:28.350Z,9.30
2023-02-01T10:45:11.969Z,9.30
2023-02-01T10:47:44.383Z,9.30
2023-02-01T10:50:40.287Z,9.30
2023-02-01T10:53:51.691Z,9.30
2023-02-01T10:56:28.824Z,9.20
2023-02-01T10:59:03.453Z,9.20
2023-02-01T11:01:41.234Z,9.20
2023-02-01T11:04:19.854Z,9.20
2023-02-01T11:07:11.677Z,9.20
2023-02-01T11:09:51.526Z,9.20
2023-02-01T11:12:31.060Z,9.20
2023-02-01T11:15:21.060Z,9.20
2023-02-01T11:17:55.775Z,9.20
2023-02-01T11:20:33.741Z,9.10
2023-02-01T11:23:06.179Z,9.20
2023-02-01T11:25:59.066Z,9.20
2023-02-01T11:28:36.749Z,9.20
2023-02-01T11:31:14.092Z,9.20
2023-02-01T11:34:01.743Z,9.20
2023-02-01T11:36:37.995Z,9.20
2023-02-01T11:39:35.221Z,9.20
2023-02-01T11:42:24.459Z,9.30
2023-02-01T11:45:26.715Z,9.30
2023-02-01T11:47:59.875Z,9.20
2023-02-01T11:50:44.865Z,9.20
2023-02-01T11:53:22.707Z,9.20
2023-02-01T11:56:16.528Z,9.10
2023-02-01T11:58:51.420Z,9.20
2023-02-01T12:01:42.597Z,9.30
2023-02-01T12:04:29.827Z,9.30
2023-02-01T12:07:07.232Z,9.20
2023-02-01T12:10:05.371Z,9.10
2023-02-01T12:13:21.508Z,9.00
2023-02-01T12:16:24.397Z,9.00
2023-02-01T12:19:14.642Z,9.00
2023-02-01T12:22:04.941Z,9.00
2023-02-01T12:25:17.064Z,9.00
2023-02-01T12:28:07.490Z,9.00
2023-02-01T12:30:58.253Z,9.10
2023-02-01T12:33:40.349Z,9.20
2023-02-01T12:36:19.941Z,9.20
2023-02-01T12:39:13.714Z,9.20
2023-02-01T12:41:57.408Z,9.30
2023-02-01T12:44:40.501Z,9.40
2023-02-01T12:47:15.785Z,9.30
2023-02-01T12:50:09.382Z,9.30
2023-02-01T12:52:50.531Z,9.30
2023-02-01T12:55:37.717Z,9.40
2023-02-01T12:58:18.465Z,9.40
2023-02-01T13:01:00.174Z,9.40
2023-02-01T13:03:45.684Z,9.40
2023-02-01T13:06:33.751Z,9.50
2023-02-01T13:09:22.287Z,9.50
2023-02-01T13:11:59.607Z,9.50
2023-02-01T13:14:39.912Z,9.50
2023-02-01T13:17:14.308Z,9.40
2023-02-01T13:20:05.742Z,9.40
2023-02-01T13:22:50.767Z,9.40
2023-02-01T13:25:47.598Z,9.40
2023-02-01T13:28:42.855Z,9.40
2023-02-01T13:31:38.728Z,9.40
2023-02-01T13:34:32.339Z,9.50
2023-02-01T13:37:25.822Z,9.40
2023-02-01T13:40:41.885Z,9.50
2023-02-01T13:43:23.758Z,9.60
2023-02-01T13:46:05.802Z,9.60
2023-02-01T13:48:52.850Z,9.50
2023-02-01T13:51:38.580Z,9.60
2023-02-01T13:54:35.329Z,9.60
2023-02-01T13:57:36.698Z,9.60
2023-02-01T14:00:37.331Z,9.60
2023-02-01T14:03:24.416Z,9.60
2023-02-01T14:06:00.382Z,9.60
2023-02-01T14:08:43.763Z,9.60
2023-02-01T14:11:46.819Z,9.60
2023-02-01T14:14:20.160Z,9.70
2023-02-01T14:16:55.307Z,9.60
2023-02-01T14:19:35.643Z,9.70
2023-02-01T14:22:25.090Z,9.70
2023-02-01T14:24:58.954Z,9.70
2023-02-01T14:27:54.611Z,9.80
2023-02-01T14:30:27.100Z,9.80
2023-02-01T14:32:59.137Z,9.90
2023-02-01T14:35:31.101Z,9.90
2023-02-01T14:38:05.125Z,9.90
2023-02-01T14:40:37.189Z,9.80
2023-02-01T14:43:09.572Z,9.80
2023-02-01T14:46:07.374Z,9.80
2023-02-01T14:48:39.608Z,9.90
2023-02-01T14:51:14.379Z,9.90
2023-02-01T14:53:47.845Z,10.00
2023-02-01T14:56:22.265Z,10.10
2023-02-01T14:59:13.206Z,10.00
2023-02-01T15:01:53.259Z,10.00
2023-02-01T15:04:27.927Z,9.90
2023-02-01T15:07:08.152Z,9.90
2023-02-01T15:09:48.693Z,9.90
2023-02-01T15:12:31.667Z,9.90
2023-02-01T15:15:18.161Z,9.90
2023-02-01T15:17:58.435Z,9.90
2023-02-01T15:20:33.952Z,9.80
2023-02-01T15:23:26.482Z,9.70
2023-02-01T15:26:00.293Z,9.60
2023-02-01T15:28:32.259Z,9.60
2023-02-01T15:31:06.648Z,9.50
2023-02-01T15:33:38.677Z,9.40
2023-02-01T15:36:19.747Z,9.40
2023-02-01T15:39:19.504Z,9.40
2023-02-01T15:41:55.389Z,9.20
2023-02-01T15:44:43.743Z,9.00
2023-02-01T15:47:24.709Z,8.80
2023-02-01T15:49:59.370Z,8.70
2023-02-01T15:52:38.703Z,8.60
2023-02-01T15:55:22.314Z,8.50
2023-02-01T15:57:54.527Z,8.50
2023-02-01T16:00:34.627Z,8.40
2023-02-01T16:03:24.524Z,8.40
2023-02-01T16:05:59.399Z,8.40
2023-02-01T16:08:37.802Z,8.20
2023-02-01T16:11:09.706Z,7.90
2023-02-01T16:13:42.229Z,7.80
2023-02-01T16:16:15.087Z,7.80
2023-02-01T16:18:47.081Z,7.80
2023-02-01T16:21:19.068Z,7.70
2023-02-01T16:23:52.502Z,7.80
2023-02-01T16:26:24.495Z,7.60
2023-02-01T16:28:56.388Z,7.50
2023-02-01T16:31:31.238Z,7.40
2023-02-01T16:34:03.787Z,7.30
2023-02-01T16:36:35.907Z,7.20
2023-02-01T16:39:16.783Z,7.00
2023-02-01T16:41:48.855Z,7.00
2023-02-01T16:44:20.759Z,7.00
2023-02-01T16:46:52.746Z,7.10
2023-02-01T16:49:26.476Z,7.10
2023-02-01T16:51:59.734Z,7.00
2023-02-01T16:54:31.883Z,7.00
2023-02-01T16:57:03.795Z,6.90
2023-02-01T16:59:35.796Z,6.70
2023-02-01T17:02:15.748Z,6.70
2023-02-01T17:04:49.716Z,6.90
2023-02-01T17:07:21.735Z,6.90
2023-02-01T17:09:53.804Z,6.70
2023-02-01T17:12:26.768Z,6.60
2023-02-01T17:15:00.112Z,6.60
2023-02-01T17:17:39.211Z,6.40
2023-02-01T17:20:22.046Z,6.30
2023-02-01T17:22:54.387Z,6.30
2023-02-01T17:25:28.685Z,6.20
2023-02-01T17:28:00.701Z,6.10
2023-02-01T17:30:32.899Z,6.00
2023-02-01T17:33:20.637Z,6.10
2023-02-01T17:35:55.575Z,6.10
2023-02-01T17:38:27.650Z,6.10
2023-02-01T17:40:59.629Z,6.10
2023-02-01T17:43:31.595Z,6.00
2023-02-01T17:46:15.776Z,5.90
2023-02-01T17:48:47.664Z,5.90
2023-02-01T17:51:23.599Z,5.90
2023-02-01T17:53:55.770Z,5.90
2023-02-01T17:56:28.671Z,5.90
2023-02-01T17:59:00.536Z,5.90
2023-02-01T18:01:33.107Z,5.90
2023-02-01T18:04:05.247Z,5.90
2023-02-01T18:06:38.599Z,5.80
2023-02-01T18:09:10.620Z,5.70
2023-02-01T18:11:42.680Z,5.70
2023-02-01T18:14:14.650Z,5.70
2023-02-01T18:16:46.969Z,5.70
2023-02-01T18:19:18.839Z,5.70
2023-02-01T18:21:53.154Z,5.70
2023-02-01T18:24:27.289Z,5.70
2023-02-01T18:26:59.654Z,5.70
2023-02-01T18:29:31.609Z,5.70
2023-02-01T18:32:03.822Z,5.70
2023-02-01T18:34:35.812Z,5.70
2023-02-01T18:37:07.749Z,5.60
2023-02-01T18:39:39.765Z,5.70
2023-02-01T18:42:11.969Z,5.60
2023-02-01T18:44:43.870Z,5.60
2023-02-01T18:47:16.381Z,5.50
2023-02-01T18:49:48.562Z,5.40
2023-02-01T18:52:20.544Z,5.40
2023-02-01T18:54:59.513Z,5.50
2023-02-01T18:57:34.987Z,5.50
2023-02-01T19:00:10.663Z,5.50
2023-02-01T19:02:43.254Z,5.60
2023-02-01T19:05:16.858Z,5.50
2023-02-01T19:07:48.848Z,5.50
2023-02-01T19:10:22.777Z,5.50
2023-02-01T19:12:55.861Z,5.60
2023-02-01T19:15:27.807Z,5.60
2023-02-01T19:17:59.847Z,5.60
2023-02-01T19:20:31.759Z,5.70
2023-02-01T19:23:03.657Z,5.70
2023-02-01T19:25:36.225Z,5.50
2023-02-01T19:28:08.211Z,5.30
2023-02-01T19:30:40.222Z,5.20
2023-02-01T19:33:12.362Z,5.10
2023-02-01T19:35:44.343Z,5.10
2023-02-01T19:38:16.610Z,5.30
2023-02-01T19:40:49.683Z,5.40
2023-02-01T19:43:22.085Z,5.30
2023-02-01T19:45:55.035Z,5.30
2023-02-01T19:48:27.885Z,5.30
2023-02-01T19:51:00.651Z,5.10
2023-02-01T19:53:32.637Z,5.00
2023-02-01T19:56:05.005Z,4.90
2023-02-01T19:58:36.935Z,4.90
2023-02-01T20:01:08.280Z,4.90
2023-02-01T20:03:40.149Z,4.80
2023-02-01T20:06:13.516Z,4.80
2023-02-01T20:08:48.077Z,4.80
2023-02-01T20:11:20.754Z,4.70
2023-02-01T20:13:53.369Z,4.70
2023-02-01T20:16:26.022Z,4.60
2023-02-01T20:18:57.935Z,4.60
2023-02-01T20:21:29.864Z,4.50
2023-02-01T20:24:01.972Z,4.50
2023-02-01T20:26:34.819Z,4.60
2023-02-01T20:29:06.794Z,4.70
2023-02-01T20:31:38.828Z,4.60
2023-02-01T20:34:10.978Z,4.60
2023-02-01T20:36:42.837Z,4.40
2023-02-01T20:39:14.751Z,4.40
2023-02-01T20:41:46.724Z,4.40
2023-02-01T20:44:18.758Z,4.30
2023-02-01T20:46:50.788Z,4.30
2023-02-01T20:49:25.282Z,4.40
2023-02-01T20:51:58.078Z,4.40
2023-02-01T20:54:30.120Z,4.40
2023-02-01T20:57:02.412Z,4.40
2023-02-01T20:59:34.260Z,4.40
2023-02-01T21:02:06.665Z,4.40
2023-02-01T21:04:38.558Z,4.30
2023-02-01T21:07:10.395Z,4.30
2023-02-01T21:09:43.335Z,4.30
2023-02-01T21:12:15.236Z,4.30
2023-02-01T21:14:47.074Z,4.40
2023-02-01T21:17:18.916Z,4.30
2023-02-01T21:19:50.802Z,4.20
2023-02-01T21:22:22.738Z,4.10
2023-02-01T21:24:54.630Z,4.10
2023-02-01T21:27:26.454Z,3.90
2023-02-01T21:29:58.400Z,3.80
2023-02-01T21:32:30.282Z,3.80
2023-02-01T21:35:02.219Z,3.70
2023-02-01T21:37:34.527Z,3.80
2023-02-01T21:40:06.996Z,3.80
2023-02-01T21:42:40.481Z,3.90
2023-02-01T21:45:16.555Z,3.90
2023-02-01T21:47:49.709Z,3.90
2023-02-01T21:50:21.674Z,3.90
2023-02-01T21:52:53.584Z,3.80
2023-02-01T21:55:25.827Z,3.80
2023-02-01T21:57:57.873Z,3.80
2023-02-01T22:00:29.767Z,3.70
2023-02-01T22:03:01.690Z,3.70
2023-02-01T22:05:33.528Z,3.70
2023-02-01T22:08:05.867Z,3.60
2023-02-01T22:10:39.203Z,3.50
2023-02-01T22:13:11.234Z,3.60
2023-02-01T22:15:43.119Z,3.60
2023-02-01T22:18:14.998Z,3.50
2023-02-01T22:20:46.914Z,3.50
2023-02-01T22:23:19.262Z,3.60
2023-02-01T22:25:51.051Z,3.60
2023-02-01T22:28:33.070Z,3.60
2023-02-01T22:31:09.009Z,3.50
2023-02-01T22:33:40.987Z,3.50
2023-02-01T22:36:16.855Z,3.50
2023-02-01T22:38:48.767Z,3.40
2023-02-01T22:41:20.684Z,3.40
2023-02-01T22:43:52.631Z,3.40
2023-02-01T22:46:25.533Z,3.30
2023-02-01T22:48:58.929Z,3.30
2023-02-01T22:51:32.152Z,3.30
2023-02-01T22:54:04.560Z,3.30
2023-02-01T22:56:37.524Z,3.30
2023-02-01T22:59:12.287Z,3.20
2023-02-01T23:01:44.744Z,3.20
2023-02-01T23:04:16.750Z,3.20
2023-02-01T23:06:52.095Z,3.20
2023-02-01T23:09:25.846Z,3.20
2023-02-01T23:11:57.752Z,3.10
2023-02-01T23:14:29.628Z,3.10
2023-02-01T23:17:01.504Z,3.10
2023-02-01T23:19:33.350Z,3.10
2023-02-01T23:22:05.227Z,3.10
2023-02-01T23:24:37.049Z,3.10
2023-02-01T23:27:08.851Z,3.00
2023-02-01T23:29:40.665Z,3.00
2023-02-01T23:32:12.550Z,3.00
2023-02-01T23:34:44.455Z,3.00
2023-02-01T23:37:16.287Z,3.00
2023-02-01T23:39:48.120Z,3.00
2023-02-01T23:42:21.129Z,3.00
2023-02-01T23:44:52.926Z,2.90
2023-02-01T23:47:24.809Z,2.90
2023-02-01T23:49:56.842Z,2.90
2023-02-01T23:52:28.640Z,2.90
2023-02-01T23:55:00.485Z,2.80
2023-02-01T23:57:32.306Z,2.80
